createdAt,value
2023-01-09T00:00:34.554Z,1.42
2023-01-09T00:03:01.282Z,1.70
2023-01-09T00:05:27.896Z,1.80
2023-01-09T00:07:54.485Z,1.20
2023-01-09T00:10:21.096Z,1.98
2023-01-09T00:12:47.777Z,1.20
2023-01-09T00:15:17.194Z,1.60
2023-01-09T00:17:43.909Z,1.45
2023-01-09T00:20:14.313Z,1.55
2023-01-09T00:22:40.924Z,1.17
2023-01-09T00:25:07.866Z,1.42
2023-01-09T00:27:35.945Z,1.65
2023-01-09T00:30:03.498Z,1.92
2023-01-09T00:32:30.207Z,1.60
2023-01-09T00:34:56.787Z,1.75
2023-01-09T00:37:23.871Z,1.60
2023-01-09T00:39:50.536Z,1.38
2023-01-09T00:42:22.236Z,1.58
2023-01-09T00:44:59.094Z,1.70
2023-01-09T00:47:34.029Z,1.95
2023-01-09T00:50:10.237Z,2.10
2023-01-09T00:52:40.359Z,2.10
2023-01-09T00:55:08.175Z,2.00
2023-01-09T00:57:35.028Z,1.90
2023-01-09T01:00:02.173Z,2.28
2023-01-09T01:02:28.928Z,2.10
2023-01-09T01:05:14.239Z,2.47
2023-01-09T01:07:42.739Z,1.80
2023-01-09T01:10:17.029Z,1.83
2023-01-09T01:12:43.871Z,1.80
2023-01-09T01:15:11.408Z,1.90
2023-01-09T01:17:39.071Z,1.65
2023-01-09T01:20:08.423Z,1.98
2023-01-09T01:22:35.255Z,2.08
2023-01-09T01:25:02.224Z,1.27
2023-01-09T01:27:29.107Z,1.55
2023-01-09T01:29:56.655Z,1.27
2023-01-09T01:32:24.191Z,1.30
2023-01-09T01:34:50.795Z,1.50
2023-01-09T01:37:17.339Z,1.58
2023-01-09T01:39:43.964Z,1.10
2023-01-09T01:42:13.048Z,1.08
2023-01-09T01:45:09.141Z,0.95
2023-01-09T01:47:41.561Z,0.60
2023-01-09T01:50:13.921Z,0.80
2023-01-09T01:52:45.062Z,0.63
2023-01-09T01:55:13.776Z,0.82
2023-01-09T01:57:45.881Z,0.60
2023-01-09T02:00:12.895Z,0.70
2023-01-09T02:02:39.547Z,0.65
2023-01-09T02:05:06.644Z,0.60
2023-01-09T02:07:33.366Z,0.65
2023-01-09T02:10:00.115Z,0.73
2023-01-09T02:12:27.984Z,0.40
2023-01-09T02:15:06.725Z,0.50
2023-01-09T02:17:45.672Z,0.50
2023-01-09T02:20:18.184Z,0.40
2023-01-09T02:23:16.060Z,0.50
2023-01-09T02:26:07.473Z,0.60
2023-01-09T02:29:11.076Z,0.43
2023-01-09T02:31:58.793Z,0.32
2023-01-09T02:34:31.518Z,0.30
2023-01-09T02:37:22.517Z,0.30
2023-01-09T02:40:01.592Z,0.43
2023-01-09T02:42:29.552Z,0.40
2023-01-09T02:44:56.091Z,0.35
2023-01-09T02:47:22.809Z,0.30
2023-01-09T02:49:59.860Z,0.20
2023-01-09T02:52:38.603Z,0.30
2023-01-09T02:55:23.165Z,0.40
2023-01-09T02:58:11.592Z,0.30
2023-01-09T03:00:50.146Z,0.30
2023-01-09T03:03:27.523Z,0.20
2023-01-09T03:06:06.889Z,0.25
2023-01-09T03:08:39.999Z,0.22
2023-01-09T03:11:08.862Z,0.20
2023-01-09T03:13:53.220Z,0.43
2023-01-09T03:16:35.298Z,0.30
2023-01-09T03:19:06.426Z,0.40
2023-01-09T03:21:34.250Z,0.90
2023-01-09T03:24:02.470Z,0.70
2023-01-09T03:26:29.862Z,0.70
2023-01-09T03:28:57.100Z,0.57
2023-01-09T03:31:23.992Z,1.10
2023-01-09T03:33:50.839Z,0.82
2023-01-09T03:36:19.004Z,1.10
2023-01-09T03:38:45.858Z,1.70
2023-01-09T03:41:12.436Z,2.03
2023-01-09T03:43:39.096Z,1.73
2023-01-09T03:46:05.986Z,1.95
2023-01-09T03:48:32.839Z,2.22
2023-01-09T03:50:59.489Z,2.15
2023-01-09T03:53:28.168Z,2.70
2023-01-09T03:55:57.011Z,2.47
2023-01-09T03:58:24.178Z,2.80
2023-01-09T04:00:52.420Z,2.80
2023-01-09T04:03:20.494Z,3.30
2023-01-09T04:05:49.210Z,3.63
2023-01-09T04:08:16.343Z,3.27
2023-01-09T04:10:47.553Z,3.45
2023-01-09T04:13:14.805Z,3.83
2023-01-09T04:15:41.561Z,3.70
2023-01-09T04:18:08.275Z,4.60
2023-01-09T04:20:35.049Z,4.80
2023-01-09T04:23:02.115Z,4.68
2023-01-09T04:25:28.857Z,4.65
2023-01-09T04:27:55.388Z,5.40
2023-01-09T04:30:22.238Z,5.18
2023-01-09T04:32:49.067Z,5.50
2023-01-09T04:35:15.783Z,5.53
2023-01-09T04:37:42.353Z,4.47
2023-01-09T04:40:10.652Z,5.32
2023-01-09T04:42:38.613Z,5.87
2023-01-09T04:45:07.185Z,5.30
2023-01-09T04:47:33.868Z,6.30
2023-01-09T04:50:01.066Z,5.85
2023-01-09T04:52:28.475Z,5.88
2023-01-09T04:54:55.082Z,7.07
2023-01-09T04:57:21.772Z,6.50
2023-01-09T04:59:48.374Z,7.43
2023-01-09T05:02:15.070Z,7.95
2023-01-09T05:04:41.740Z,8.13
2023-01-09T05:07:08.347Z,8.23
2023-01-09T05:09:36.063Z,8.40
2023-01-09T05:12:03.012Z,8.30
2023-01-09T05:14:29.717Z,8.38
2023-01-09T05:16:56.533Z,8.95
2023-01-09T05:19:23.553Z,8.98
2023-01-09T05:21:50.271Z,9.30
2023-01-09T05:24:16.928Z,9.75
2023-01-09T05:26:43.512Z,10.32
2023-01-09T05:29:10.141Z,9.73
2023-01-09T05:31:36.802Z,9.80
2023-01-09T05:34:03.539Z,9.90
2023-01-09T05:36:30.130Z,9.30
2023-01-09T05:38:57.891Z,9.68
2023-01-09T05:41:26.122Z,9.70
2023-01-09T05:43:52.725Z,9.32
2023-01-09T05:46:19.441Z,9.23
2023-01-09T05:48:46.147Z,9.23
2023-01-09T05:51:12.772Z,9.05
2023-01-09T05:53:39.421Z,9.23
2023-01-09T05:56:06.351Z,10.48
2023-01-09T05:58:32.893Z,9.40
2023-01-09T06:00:59.568Z,8.52
2023-01-09T06:03:26.220Z,9.73
2023-01-09T06:05:52.762Z,9.13
2023-01-09T06:08:19.337Z,9.77
2023-01-09T06:10:47.178Z,10.18
2023-01-09T06:13:14.539Z,10.32
2023-01-09T06:15:41.494Z,9.43
2023-01-09T06:18:08.220Z,9.55
2023-01-09T06:20:35.332Z,8.98
2023-01-09T06:23:01.876Z,9.50
2023-01-09T06:25:28.433Z,9.80
2023-01-09T06:27:54.975Z,9.63
2023-01-09T06:30:21.723Z,10.85
2023-01-09T06:32:49.561Z,11.10
2023-01-09T06:35:20.429Z,9.93
2023-01-09T06:37:50.498Z,9.25
2023-01-09T06:40:18.565Z,9.05
2023-01-09T06:42:45.954Z,8.05
2023-01-09T06:45:13.881Z,8.75
2023-01-09T06:47:40.947Z,7.85
2023-01-09T06:50:12.602Z,8.18
2023-01-09T06:52:39.768Z,8.52
2023-01-09T06:55:07.643Z,7.45
2023-01-09T06:57:34.180Z,6.40
2023-01-09T07:00:00.735Z,5.85
2023-01-09T07:02:27.262Z,5.55
2023-01-09T07:04:53.838Z,5.18
2023-01-09T07:07:22.247Z,4.30
2023-01-09T07:09:48.888Z,5.00
2023-01-09T07:12:15.608Z,4.15
2023-01-09T07:14:42.302Z,3.45
2023-01-09T07:17:12.327Z,4.20
2023-01-09T07:19:38.957Z,3.65
2023-01-09T07:22:05.572Z,4.15
2023-01-09T07:24:32.168Z,3.33
2023-01-09T07:26:58.710Z,3.30
2023-01-09T07:29:25.336Z,3.65
2023-01-09T07:31:51.914Z,3.25
2023-01-09T07:34:19.777Z,2.92
2023-01-09T07:36:46.716Z,3.67
2023-01-09T07:39:13.774Z,3.20
2023-01-09T07:41:40.637Z,3.55
2023-01-09T07:44:11.076Z,3.15
2023-01-09T07:46:37.999Z,3.22
2023-01-09T07:49:05.012Z,2.60
2023-01-09T07:51:31.627Z,4.00
2023-01-09T07:53:58.251Z,2.45
2023-01-09T07:56:24.985Z,2.60
2023-01-09T07:58:51.533Z,2.38
2023-01-09T08:01:18.257Z,2.53
2023-01-09T08:03:44.921Z,2.88
2023-01-09T08:06:11.518Z,2.67
2023-01-09T08:08:38.102Z,2.70
2023-01-09T08:11:04.793Z,2.35
2023-01-09T08:13:31.345Z,2.63
2023-01-09T08:15:57.964Z,3.40
2023-01-09T08:18:24.596Z,2.70
2023-01-09T08:20:51.318Z,3.03
2023-01-09T08:23:18.093Z,2.90
2023-01-09T08:25:44.814Z,2.80
2023-01-09T08:28:11.343Z,2.92
2023-01-09T08:30:38.158Z,2.63
2023-01-09T08:33:05.211Z,2.88
2023-01-09T08:35:31.840Z,2.08
2023-01-09T08:37:58.530Z,2.28
2023-01-09T08:40:25.223Z,2.55
2023-01-09T08:43:10.507Z,2.10
2023-01-09T08:45:55.742Z,1.90
2023-01-09T08:48:22.312Z,1.75
2023-01-09T08:50:49.306Z,1.73
2023-01-09T08:53:15.887Z,2.22
2023-01-09T08:55:43.150Z,1.98
2023-01-09T08:58:09.799Z,2.47
2023-01-09T09:00:36.535Z,1.90
2023-01-09T09:03:03.454Z,2.25
2023-01-09T09:05:31.106Z,2.60
2023-01-09T09:07:58.299Z,2.33
2023-01-09T09:10:28.413Z,2.63
2023-01-09T09:12:56.678Z,1.60
2023-01-09T09:15:24.170Z,2.22
2023-01-09T09:17:58.862Z,1.27
2023-01-09T09:20:27.933Z,1.50
2023-01-09T09:22:55.344Z,1.50
2023-01-09T09:25:22.294Z,1.52
2023-01-09T09:27:49.079Z,2.10
2023-01-09T09:30:17.709Z,1.95
2023-01-09T09:32:45.460Z,2.05
2023-01-09T09:35:12.896Z,1.85
2023-01-09T09:37:39.570Z,1.30
2023-01-09T09:40:18.002Z,1.35
2023-01-09T09:43:36.096Z,1.67
2023-01-09T09:46:10.912Z,1.05
2023-01-09T09:48:41.495Z,0.95
2023-01-09T09:51:26.773Z,1.58
2023-01-09T09:54:14.705Z,1.30
2023-01-09T09:56:53.200Z,1.40
2023-01-09T09:59:27.041Z,1.05
2023-01-09T10:02:11.908Z,1.38
2023-01-09T10:04:42.935Z,1.58
2023-01-09T10:07:21.514Z,1.85
2023-01-09T10:10:01.581Z,1.70
2023-01-09T10:12:30.183Z,1.42
2023-01-09T10:14:59.095Z,1.33
2023-01-09T10:17:33.188Z,1.42
2023-01-09T10:20:41.781Z,1.40
2023-01-09T10:23:41.470Z,1.87
2023-01-09T10:26:20.124Z,1.33
2023-01-09T10:29:05.645Z,1.23
2023-01-09T10:31:50.503Z,1.30
2023-01-09T10:34:32.276Z,1.63
2023-01-09T10:37:16.176Z,0.90
2023-01-09T10:39:52.595Z,1.20
2023-01-09T10:42:34.318Z,1.45
2023-01-09T10:45:16.300Z,0.90
2023-01-09T10:47:44.986Z,0.80
2023-01-09T10:50:23.672Z,1.15
2023-01-09T10:52:53.353Z,1.20
2023-01-09T10:55:39.766Z,1.00
2023-01-09T10:58:32.783Z,0.60
2023-01-09T11:01:01.432Z,1.15
2023-01-09T11:03:29.111Z,1.10
2023-01-09T11:05:58.377Z,0.93
2023-01-09T11:08:41.880Z,0.80
2023-01-09T11:11:10.127Z,1.00
2023-01-09T11:13:38.371Z,1.40
2023-01-09T11:16:10.964Z,0.95
2023-01-09T11:18:53.296Z,0.90
2023-01-09T11:21:32.810Z,1.00
2023-01-09T11:24:22.419Z,1.15
2023-01-09T11:26:51.163Z,1.35
2023-01-09T11:29:25.972Z,1.00
2023-01-09T11:31:58.478Z,1.08
2023-01-09T11:34:31.624Z,1.25
2023-01-09T11:37:15.841Z,1.05
2023-01-09T11:39:47.952Z,1.60
2023-01-09T11:42:43.448Z,1.20
2023-01-09T11:45:29.985Z,1.40
2023-01-09T11:47:56.554Z,1.23
2023-01-09T11:50:29.266Z,1.48
2023-01-09T11:53:16.161Z,2.08
2023-01-09T11:55:44.455Z,1.50
2023-01-09T11:58:20.914Z,1.58
2023-01-09T12:01:09.171Z,1.33
2023-01-09T12:04:19.007Z,1.60
2023-01-09T12:07:04.003Z,1.52
2023-01-09T12:09:55.005Z,1.50
2023-01-09T12:12:50.299Z,2.03
2023-01-09T12:15:17.365Z,2.00
2023-01-09T12:17:47.069Z,2.10
2023-01-09T12:22:52.912Z,2.05
2023-01-09T12:25:37.545Z,3.10
2023-01-09T12:28:22.379Z,2.75
2023-01-09T12:31:08.419Z,2.40
2023-01-09T12:34:29.680Z,3.33
2023-01-09T12:37:38.742Z,2.70
2023-01-09T12:40:32.857Z,3.03
2023-01-09T12:43:23.975Z,2.85
2023-01-09T12:45:56.739Z,2.22
2023-01-09T12:48:36.433Z,2.22
2023-01-09T12:51:16.259Z,2.40
2023-01-09T12:53:51.286Z,2.20
2023-01-09T12:56:26.211Z,2.30
2023-01-09T12:59:01.985Z,2.58
2023-01-09T13:01:38.766Z,2.95
2023-01-09T13:04:20.530Z,2.60
2023-01-09T13:06:54.303Z,2.20
2023-01-09T13:09:29.634Z,2.03
2023-01-09T13:12:04.347Z,2.72
2023-01-09T13:15:00.751Z,2.40
2023-01-09T13:17:33.091Z,2.13
2023-01-09T13:19:59.633Z,2.70
2023-01-09T13:22:29.005Z,2.15
2023-01-09T13:25:07.844Z,2.25
2023-01-09T13:27:40.922Z,2.45
2023-01-09T13:30:13.615Z,2.30
2023-01-09T13:32:52.598Z,2.70
2023-01-09T13:35:19.099Z,2.83
2023-01-09T13:37:51.699Z,2.22
2023-01-09T13:40:21.398Z,2.50
2023-01-09T13:42:58.500Z,2.15
2023-01-09T13:45:28.254Z,2.38
2023-01-09T13:48:11.031Z,1.90
2023-01-09T13:50:38.680Z,1.90
2023-01-09T13:53:20.386Z,2.20
2023-01-09T13:55:59.705Z,1.90
2023-01-09T13:58:28.557Z,2.20
2023-01-09T14:01:01.772Z,2.57
2023-01-09T14:03:31.356Z,3.28
2023-01-09T14:08:27.471Z,2.22
2023-01-09T14:13:32.259Z,2.30
2023-01-09T14:16:23.318Z,3.45
2023-01-09T14:19:14.570Z,2.38
2023-01-09T14:22:08.198Z,2.63
2023-01-09T14:24:46.777Z,2.90
2023-01-09T14:27:51.832Z,2.70
2023-01-09T14:30:27.860Z,3.08
2023-01-09T14:33:19.814Z,3.10
2023-01-09T14:36:14.141Z,2.50
2023-01-09T14:39:03.696Z,2.70
2023-01-09T14:44:29.776Z,3.95
2023-01-09T14:47:09.840Z,3.60
2023-01-09T14:49:48.775Z,2.90
2023-01-09T14:52:33.083Z,3.35
2023-01-09T14:55:02.149Z,3.58
2023-01-09T14:57:31.984Z,3.50
2023-01-09T15:00:17.891Z,3.78
2023-01-09T15:02:46.520Z,3.42
2023-01-09T15:05:20.621Z,3.50
2023-01-09T15:07:54.602Z,3.78
2023-01-09T15:10:26.348Z,4.00
2023-01-09T15:12:56.520Z,3.88
2023-01-09T15:15:25.187Z,3.45
2023-01-09T15:18:01.367Z,3.72
2023-01-09T15:20:31.137Z,4.15
2023-01-09T15:23:04.112Z,3.95
2023-01-09T15:25:39.378Z,4.53
2023-01-09T15:28:27.072Z,4.47
2023-01-09T15:31:17.139Z,4.38
2023-01-09T15:33:46.167Z,4.00
2023-01-09T15:36:31.259Z,4.20
2023-01-09T15:38:59.352Z,4.82
2023-01-09T15:41:49.533Z,5.45
2023-01-09T15:44:41.193Z,5.25
2023-01-09T15:47:28.189Z,5.18
2023-01-09T15:50:05.917Z,5.63
2023-01-09T15:52:56.638Z,5.90
2023-01-09T15:58:41.025Z,5.50
2023-01-09T16:02:00.198Z,5.57
2023-01-09T16:04:35.874Z,6.57
2023-01-09T16:07:35.565Z,6.18
2023-01-09T16:10:57.388Z,6.47
2023-01-09T16:13:35.599Z,6.40
2023-01-09T16:16:39.273Z,7.35
2023-01-09T16:19:31.831Z,6.95
2023-01-09T16:22:26.449Z,7.97
2023-01-09T16:25:04.028Z,6.60
2023-01-09T16:28:04.376Z,5.82
2023-01-09T16:30:31.718Z,4.40
2023-01-09T16:32:58.568Z,4.38
2023-01-09T16:35:26.327Z,3.90
2023-01-09T16:37:53.278Z,3.05
2023-01-09T16:40:25.639Z,2.65
2023-01-09T16:43:00.401Z,2.35
2023-01-09T16:45:38.649Z,1.85
2023-01-09T16:48:15.568Z,1.90
2023-01-09T16:50:43.094Z,1.20
2023-01-09T16:53:35.856Z,1.27
2023-01-09T16:56:02.706Z,1.30
2023-01-09T16:58:31.559Z,2.30
2023-01-09T17:00:58.653Z,1.30
2023-01-09T17:03:27.268Z,7.15
2023-01-09T17:05:56.620Z,7.80
2023-01-09T17:08:25.935Z,4.05
2023-01-09T17:10:54.645Z,3.63
2023-01-09T17:13:22.119Z,1.63
2023-01-09T17:15:49.183Z,1.40
2023-01-09T17:18:18.133Z,1.58
2023-01-09T17:20:47.382Z,2.08
2023-01-09T17:23:14.185Z,1.92
2023-01-09T17:25:59.994Z,2.13
2023-01-09T17:28:32.655Z,2.95
2023-01-09T17:31:05.908Z,3.50
2023-01-09T17:33:33.700Z,3.15
2023-01-09T17:36:02.935Z,4.07
2023-01-09T17:38:29.587Z,3.85
2023-01-09T17:40:56.101Z,3.80
2023-01-09T17:43:22.676Z,4.07
2023-01-09T17:45:49.489Z,3.40
2023-01-09T17:48:25.514Z,3.63
2023-01-09T17:50:52.158Z,5.60
2023-01-09T17:53:20.692Z,4.10
2023-01-09T17:55:47.338Z,4.13
2023-01-09T17:58:26.242Z,4.05
2023-01-09T18:00:52.984Z,4.57
2023-01-09T18:03:24.267Z,4.80
2023-01-09T18:05:51.090Z,4.90
2023-01-09T18:08:17.756Z,5.80
2023-01-09T18:10:48.442Z,6.60
2023-01-09T18:13:16.514Z,6.45
2023-01-09T18:15:44.567Z,6.95
2023-01-09T18:18:11.665Z,8.52
2023-01-09T18:20:42.713Z,8.32
2023-01-09T18:23:11.119Z,9.32
2023-01-09T18:25:42.078Z,9.45
2023-01-09T18:28:10.362Z,10.13
2023-01-09T18:30:37.389Z,9.95
2023-01-09T18:33:04.227Z,9.52
2023-01-09T18:35:33.660Z,9.93
2023-01-09T18:38:00.337Z,10.60
2023-01-09T18:40:27.101Z,11.55
2023-01-09T18:42:53.656Z,11.40
2023-01-09T18:45:20.321Z,11.82
2023-01-09T18:47:46.949Z,11.98
2023-01-09T18:50:13.541Z,13.23
2023-01-09T18:52:40.255Z,11.63
2023-01-09T18:55:07.142Z,13.23
2023-01-09T18:57:33.719Z,11.88
2023-01-09T19:00:00.344Z,12.32
2023-01-09T19:02:27.167Z,11.70
2023-01-09T19:04:53.767Z,11.52
2023-01-09T19:07:20.474Z,12.43
2023-01-09T19:09:47.065Z,12.27
2023-01-09T19:12:13.671Z,11.80
2023-01-09T19:14:40.347Z,11.13
2023-01-09T19:17:06.956Z,12.35
2023-01-09T19:19:33.878Z,11.77
2023-01-09T19:22:00.660Z,10.32
2023-01-09T19:24:27.405Z,8.95
2023-01-09T19:26:54.295Z,8.93
2023-01-09T19:29:20.827Z,8.93
2023-01-09T19:31:48.728Z,8.60
2023-01-09T19:34:18.780Z,7.25
2023-01-09T19:36:53.998Z,6.80
2023-01-09T19:39:23.638Z,6.53
2023-01-09T19:41:50.248Z,6.70
2023-01-09T19:44:19.039Z,6.35
2023-01-09T19:46:46.154Z,6.78
2023-01-09T19:49:12.745Z,7.15
2023-01-09T19:51:39.277Z,7.28
2023-01-09T19:56:35.470Z,8.10
2023-01-09T19:59:03.740Z,8.63
2023-01-09T20:01:39.439Z,9.80
2023-01-09T20:04:13.271Z,10.35
2023-01-09T20:06:41.877Z,9.98
2023-01-09T20:09:11.067Z,11.73
2023-01-09T20:11:44.519Z,11.30
2023-01-09T20:14:13.722Z,11.95
2023-01-09T20:16:40.997Z,11.90
2023-01-09T20:19:09.455Z,13.18
2023-01-09T20:21:36.840Z,12.25
2023-01-09T20:24:05.259Z,12.68
2023-01-09T20:26:34.047Z,12.77
2023-01-09T20:29:01.000Z,13.73
2023-01-09T20:31:30.997Z,12.65
2023-01-09T20:33:59.678Z,12.75
2023-01-09T20:36:29.127Z,11.47
2023-01-09T20:39:01.316Z,11.52
2023-01-09T20:41:30.646Z,11.02
2023-01-09T20:44:07.112Z,11.55
2023-01-09T20:46:38.324Z,11.50
2023-01-09T20:49:09.039Z,10.50
2023-01-09T20:51:37.321Z,10.82
2023-01-09T20:54:04.113Z,9.98
2023-01-09T20:56:31.696Z,10.52
2023-01-09T20:58:59.606Z,9.98
2023-01-09T21:01:27.902Z,10.45
2023-01-09T21:03:56.354Z,10.07
2023-01-09T21:06:24.707Z,10.82
2023-01-09T21:08:52.969Z,11.40
2023-01-09T21:11:21.246Z,11.70
2023-01-09T21:13:48.009Z,10.77
2023-01-09T21:16:19.877Z,10.50
2023-01-09T21:18:47.698Z,11.20
2023-01-09T21:21:16.612Z,11.02
2023-01-09T21:23:47.906Z,10.95
2023-01-09T21:26:15.614Z,10.32
2023-01-09T21:28:46.459Z,10.68
2023-01-09T21:31:14.027Z,11.32
2023-01-09T21:33:41.064Z,12.30
2023-01-09T21:36:08.405Z,10.23
2023-01-09T21:38:35.297Z,12.70
2023-01-09T21:41:22.463Z,11.23
2023-01-09T21:44:07.890Z,11.48
2023-01-09T21:46:52.757Z,11.88
2023-01-09T21:49:20.460Z,12.20
2023-01-09T21:51:47.340Z,12.27
2023-01-09T21:54:14.166Z,12.55
2023-01-09T21:56:40.741Z,13.18
2023-01-09T21:59:07.610Z,13.57
2023-01-09T22:01:34.723Z,13.27
2023-01-09T22:04:01.424Z,12.88
2023-01-09T22:06:28.655Z,14.48
2023-01-09T22:08:56.088Z,13.52
2023-01-09T22:11:23.201Z,13.80
2023-01-09T22:13:50.756Z,15.07
2023-01-09T22:16:18.176Z,13.98
2023-01-09T22:18:44.889Z,15.10
2023-01-09T22:21:11.910Z,14.90
2023-01-09T22:23:38.531Z,14.55
2023-01-09T22:26:13.039Z,14.57
2023-01-09T22:28:40.224Z,15.00
2023-01-09T22:31:17.840Z,14.38
2023-01-09T22:33:49.604Z,14.50
2023-01-09T22:36:16.347Z,13.90
2023-01-09T22:38:42.937Z,11.88
2023-01-09T22:41:09.724Z,11.65
2023-01-09T22:43:36.396Z,10.98
2023-01-09T22:46:04.927Z,10.45
2023-01-09T22:48:32.321Z,9.38
2023-01-09T22:51:00.569Z,8.82
2023-01-09T22:53:27.899Z,8.68
2023-01-09T22:55:56.432Z,8.10
2023-01-09T22:58:25.005Z,7.00
2023-01-09T23:00:52.446Z,7.43
2023-01-09T23:03:19.132Z,6.13
2023-01-09T23:05:45.743Z,5.60
2023-01-09T23:08:12.713Z,5.00
2023-01-09T23:10:39.543Z,4.78
2023-01-09T23:13:07.591Z,3.53
2023-01-09T23:15:34.248Z,4.00
2023-01-09T23:18:00.819Z,3.72
2023-01-09T23:20:27.417Z,3.42
2023-01-09T23:22:54.019Z,3.15
2023-01-09T23:25:20.649Z,3.47
2023-01-09T23:27:47.292Z,3.03
2023-01-09T23:30:14.436Z,2.58
2023-01-09T23:32:41.767Z,2.40
2023-01-09T23:35:08.688Z,2.17
2023-01-09T23:37:35.410Z,2.13
2023-01-09T23:40:01.951Z,1.83
2023-01-09T23:42:47.473Z,1.80
2023-01-09T23:45:14.420Z,1.60
2023-01-09T23:47:41.274Z,2.17
2023-01-09T23:50:09.158Z,1.42
2023-01-09T23:52:36.202Z,1.55
2023-01-09T23:55:02.775Z,1.60
2023-01-09T23:57:29.361Z,1.50
2023-01-09T23:59:55.912Z,1.60
